Brookings, OR

5:51 PM PST on December 18, 2014 (GMT -0800)
Gardner Ridge | Change Station
CLOSE
Current Station
Personal Weather Station
Location: Brookings, OR
Elevation: 1365 ft
Nearby Weather Stations
Active Advisory: High Surf Advisory

Elev 1365 ft 42.11 °N, 124.21 °W | Updated 7 minutes ago

Overcast
Overcast
48.0 °F
Feels Like 48 °F
N
0.0
Wind Variable Wind from SW
Gusts 12.0 mph

Today
High -- | Low -- °F
--% Chance of Precip.
Yesterday
High -- | Low -- °F
Precip. -- in
7:40 AM 4:47 PM
Waning Crescent, 11% visible
Pressure 29.94 in
Visibility 7.0 miles
Clouds Scattered Clouds 2800 ft
Mostly Cloudy 3500 ft
Windchill 48 °F
Dew Point 47 °F
Humidity 97%
Rainfall 0.11 in
Snow Depth Not available.
UV 0 out of 12
Pollen 2.00 out of 12
Air Quality Not available.
Flu Activity Not available.
SPECI KBOK 190123Z AUTO 14008G14KT 7SM SCT028 BKN035 12/11 A2994 RMK AO2 BKN V OVC

More Conditions Fewer Conditions

Pressure 29.94 in
Visibility 7.0 miles
Clouds Scattered Clouds 2800 ft
Mostly Cloudy 3500 ft
Windchill 48 °F
Dew Point 47 °F
Humidity 97%
Rainfall 0.11 in
Snow Depth Not available.
UV 0 out of 12
Pollen 2.00 out of 12
Air Quality Not available.
Flu Activity Not available.
SPECI KBOK 190123Z AUTO 14008G14KT 7SM SCT028 BKN035 12/11 A2994 RMK AO2 BKN V OVC

More Conditions Fewer Conditions

10-Day Weather Forecast

Almanac

Astronomy

Dec. 18, 2014 Rise Set
Actual Time
Civil Twilight
Nautical Twilight
Astronomical Twilight
Moon
Length of Visible Light
Length of Day
Tomorrow will be .
, % of the Moon is Illuminated

Today's Extremes

State Highs State Lows

Community

WunderPhotos

Upload Photos

1,779,034 photos uploaded!

WunderBlogs® & News

Nearby

Air Quality

  Air Quality AQ Index Pollutant
Not available.

Snow Depth

Station Depth Elevation

Earthquake Activity

City Distance Mag. Time & Date
Minimum magnitude displayed is 2.5.

Coastal Water Temperatures

Place Temperature

Nearby Weather Stations